Maida Hill, United Kingdom
Current Conditions -  °F | °C
As of 5:50 AM on Monday 20 Oct 2014 (Local Time) from EGLC Reporting Station
Scattered Clouds Scattered Clouds  
Wind Chill: 14°   Ceiling: Unl
Heat Index: 14°   Visibility: 6mi
Dew Point: 11°   Wind: 13mph
Humidity: 82%   Direction: 250°WSW
Pressure: 30"   Gusts: NA
Location:  51.52°N, 0.18°W
Report Text: EGLC 200450Z 25011KT 9999 FEW020 SCT026 14/11 Q1016
Loading
Personal Weather Stations






























Interactive Weather Map
Tropical Storm Tracking
New forecast layout! Learn more

10-Day Weather Forecast

Advertisements
Track Severe Weather on mobile